Woody Point, Canada
Current Conditions -  °F | °C
As of 1:00 PM on Tuesday 21 Oct 2014 (Local Time) from CYDF Reporting Station
Rain Showers Rain Showers  
Wind Chill: 42°   Ceiling: 3300
Heat Index: 48°   Visibility: 12mi
Dew Point: 37°   Wind: 17mph
Humidity: 66%   Direction: 240°WSW
Pressure: 29.98"   Gusts: 26mph
Location:  49.5°N, 57.93°W
Report Text: CYDF 211500Z 24015G23KT 12SM VCSH OVC033 09/03 A2998 RMK SC8 SLP153
Loading
Personal Weather Stations






























Interactive Weather Map
Tropical Storm Tracking
New forecast layout! Learn more

10-Day Weather Forecast

Advertisements
Track Severe Weather on mobile